createdAt,value
2022-11-05T00:01:32.579Z,100284.78
2022-11-05T00:04:26.754Z,100288.38
2022-11-05T00:07:29.225Z,100291.78
2022-11-05T00:10:06.180Z,100298.63
2022-11-05T00:13:10.244Z,100300.72
2022-11-05T00:15:56.124Z,100309.34
2022-11-05T00:18:23.342Z,100302.88
2022-11-05T00:20:52.549Z,100306.66
2022-11-05T00:23:40.966Z,100307.06
2022-11-05T00:26:11.541Z,100310.78
2022-11-05T00:28:44.260Z,100308.19
2022-11-05T00:31:13.480Z,100306.06
2022-11-05T00:33:44.530Z,100309.09
2022-11-05T00:36:11.723Z,100305.00
2022-11-05T00:38:38.438Z,100295.63
2022-11-05T00:41:09.366Z,100303.38
2022-11-05T00:43:58.000Z,100306.41
2022-11-05T00:46:24.809Z,100311.69
2022-11-05T00:49:10.314Z,100322.06
2022-11-05T00:51:40.608Z,100326.69
2022-11-05T00:54:07.313Z,100333.06
2022-11-05T00:56:38.533Z,100332.78
2022-11-05T00:59:08.063Z,100333.19
2022-11-05T01:01:34.794Z,100342.56
2022-11-05T01:04:01.635Z,100346.00
2022-11-05T01:06:30.823Z,100343.34
2022-11-05T01:08:57.676Z,100342.25
2022-11-05T01:11:33.722Z,100331.25
2022-11-05T01:14:08.239Z,100328.75
2022-11-05T01:16:35.460Z,100340.13
2022-11-05T01:19:03.175Z,100335.03
2022-11-05T01:21:29.817Z,100335.97
2022-11-05T01:23:56.651Z,100334.00
2022-11-05T01:26:23.749Z,100337.66
2022-11-05T01:28:53.202Z,100339.00
2022-11-05T01:31:20.200Z,100346.94
2022-11-05T01:33:48.335Z,100345.41
2022-11-05T01:36:15.152Z,100346.13
2022-11-05T01:38:43.851Z,100344.03
2022-11-05T01:41:13.388Z,100344.63
2022-11-05T01:43:53.065Z,100342.00
2022-11-05T01:46:29.022Z,100343.28
2022-11-05T01:49:22.178Z,100342.41
2022-11-05T01:51:49.309Z,100341.19
2022-11-05T01:54:21.072Z,100344.03
2022-11-05T01:56:54.142Z,100344.16
2022-11-05T01:59:33.084Z,100334.50
2022-11-05T02:02:02.354Z,100346.84
2022-11-05T02:04:38.583Z,100341.22
2022-11-05T02:07:08.181Z,100340.72
2022-11-05T02:09:50.099Z,100341.25
2022-11-05T02:12:17.968Z,100346.13
2022-11-05T02:14:44.535Z,100346.13
2022-11-05T02:17:38.921Z,100348.22
2022-11-05T02:20:33.623Z,100352.94
2022-11-05T02:23:09.936Z,100343.94
2022-11-05T02:25:58.779Z,100338.66
2022-11-05T02:28:40.572Z,100340.59
2022-11-05T02:31:19.818Z,100354.38
2022-11-05T02:33:57.143Z,100359.19
2022-11-05T02:37:02.578Z,100351.56
2022-11-05T02:40:22.180Z,100370.13
2022-11-05T02:43:05.516Z,100378.63
2022-11-05T02:45:48.447Z,100388.03
2022-11-05T02:48:44.353Z,100391.09
2022-11-05T02:51:40.632Z,100397.09
2022-11-05T02:54:29.061Z,100404.44
2022-11-05T02:57:03.145Z,100405.03
2022-11-05T02:59:30.610Z,100402.84
2022-11-05T03:02:02.463Z,100396.44
2022-11-05T03:04:32.677Z,100399.66
2022-11-05T03:07:01.009Z,100401.56
2022-11-05T03:10:10.430Z,100407.59
2022-11-05T03:12:51.172Z,100412.22
2022-11-05T03:15:56.731Z,100415.63
2022-11-05T03:18:32.579Z,100417.84
2022-11-05T03:21:05.786Z,100423.56
2022-11-05T03:23:38.488Z,100428.78
2022-11-05T03:26:17.695Z,100423.22
2022-11-05T03:28:59.930Z,100426.38
2022-11-05T03:31:34.490Z,100423.84
2022-11-05T03:34:04.537Z,100431.78
2022-11-05T03:36:43.073Z,100438.88
2022-11-05T03:39:19.345Z,100444.03
2022-11-05T03:41:51.153Z,100454.28
2022-11-05T03:44:26.501Z,100453.38
2022-11-05T03:47:11.758Z,100448.72
2022-11-05T03:50:40.025Z,100450.66
2022-11-05T03:53:16.571Z,100455.09
2022-11-05T03:56:13.661Z,100446.78
2022-11-05T03:58:48.540Z,100457.94
2022-11-05T04:01:18.351Z,100461.41
2022-11-05T04:03:48.255Z,100467.50
2022-11-05T04:06:33.534Z,100474.31
2022-11-05T04:09:23.314Z,100476.31
2022-11-05T04:12:14.541Z,100489.56
2022-11-05T04:14:44.774Z,100494.03
2022-11-05T04:17:12.561Z,100490.31
2022-11-05T04:19:59.880Z,100501.81
2022-11-05T04:23:01.064Z,100510.28
2022-11-05T04:25:27.729Z,100509.19
2022-11-05T04:27:59.747Z,100515.28
2022-11-05T04:30:32.844Z,100512.41
2022-11-05T04:33:05.654Z,100511.66
2022-11-05T04:35:39.449Z,100516.97
2022-11-05T04:38:11.793Z,100516.56
2022-11-05T04:40:43.957Z,100508.81
2022-11-05T04:43:19.925Z,100512.50
2022-11-05T04:45:46.976Z,100519.50
2022-11-05T04:48:14.060Z,100512.78
2022-11-05T04:50:40.817Z,100511.56
2022-11-05T04:53:07.585Z,100512.06
2022-11-05T04:55:35.952Z,100504.59
2022-11-05T04:58:02.604Z,100506.75
2022-11-05T05:00:29.405Z,100511.56
2022-11-05T05:02:56.985Z,100518.97
2022-11-05T05:05:24.178Z,100514.28
2022-11-05T05:07:50.914Z,100512.53
2022-11-05T05:10:17.827Z,100511.56
2022-11-05T05:12:46.859Z,100514.38
2022-11-05T05:15:16.567Z,100522.13
2022-11-05T05:17:43.300Z,100521.38
2022-11-05T05:20:32.699Z,100521.13
2022-11-05T05:22:59.309Z,100515.72
2022-11-05T05:25:26.051Z,100514.53
2022-11-05T05:27:55.167Z,100518.09
2022-11-05T05:30:22.128Z,100520.38
2022-11-05T05:32:48.911Z,100526.22
2022-11-05T05:35:18.372Z,100536.53
2022-11-05T05:37:49.761Z,100535.69
2022-11-05T05:40:19.162Z,100530.03
2022-11-05T05:42:48.920Z,100535.44
2022-11-05T05:45:18.340Z,100544.66
2022-11-05T05:47:45.392Z,100557.19
2022-11-05T05:50:12.340Z,100559.28
2022-11-05T05:52:41.747Z,100573.09
2022-11-05T05:55:13.574Z,100581.16
2022-11-05T05:57:41.519Z,100588.44
2022-11-05T06:00:11.379Z,100581.31
2022-11-05T06:02:38.353Z,100579.38
2022-11-05T06:05:05.694Z,100579.88
2022-11-05T06:07:37.292Z,100579.19
2022-11-05T06:10:06.329Z,100585.94
2022-11-05T06:12:41.438Z,100598.78
2022-11-05T06:15:08.484Z,100597.66
2022-11-05T06:17:39.451Z,100598.13
2022-11-05T06:20:10.403Z,100598.81
2022-11-05T06:22:41.010Z,100601.72
2022-11-05T06:25:08.660Z,100612.50
2022-11-05T06:27:38.229Z,100611.69
2022-11-05T06:30:05.249Z,100621.22
2022-11-05T06:32:32.203Z,100624.31
2022-11-05T06:35:02.057Z,100629.53
2022-11-05T06:37:28.841Z,100637.88
2022-11-05T06:40:08.617Z,100643.06
2022-11-05T06:42:40.996Z,100642.59
2022-11-05T06:45:10.641Z,100643.25
2022-11-05T06:47:40.543Z,100651.13
2022-11-05T06:50:07.498Z,100646.09
2022-11-05T06:52:39.893Z,100652.97
2022-11-05T06:55:11.165Z,100660.19
2022-11-05T06:57:40.663Z,100654.06
2022-11-05T07:00:08.447Z,100662.75
2022-11-05T07:02:35.215Z,100668.56
2022-11-05T07:05:05.160Z,100674.78
2022-11-05T07:07:34.397Z,100691.28
2022-11-05T07:10:05.604Z,100691.53
2022-11-05T07:12:32.400Z,100695.13
2022-11-05T07:15:01.099Z,100708.84
2022-11-05T07:17:27.868Z,100710.06
2022-11-05T07:19:56.539Z,100699.59
2022-11-05T07:22:23.701Z,100709.84
2022-11-05T07:24:53.098Z,100718.22
2022-11-05T07:27:19.862Z,100713.25
2022-11-05T07:29:53.416Z,100720.72
2022-11-05T07:32:20.091Z,100725.53
2022-11-05T07:34:54.809Z,100731.53
2022-11-05T07:37:26.104Z,100727.84
2022-11-05T07:39:52.887Z,100730.75
2022-11-05T07:42:19.674Z,100730.13
2022-11-05T07:44:55.357Z,100735.81
2022-11-05T07:47:22.031Z,100741.53
2022-11-05T07:49:48.763Z,100737.31
2022-11-05T07:52:17.937Z,100739.84
2022-11-05T07:54:44.902Z,100742.25
2022-11-05T07:57:11.750Z,100748.59
2022-11-05T07:59:48.350Z,100743.66
2022-11-05T08:02:15.314Z,100744.97
2022-11-05T08:04:45.529Z,100751.72
2022-11-05T08:07:15.667Z,100756.03
2022-11-05T08:09:45.216Z,100763.03
2022-11-05T08:12:12.631Z,100749.84
2022-11-05T08:14:47.300Z,100759.56
2022-11-05T08:17:18.329Z,100760.78
2022-11-05T08:19:45.293Z,100766.63
2022-11-05T08:22:11.968Z,100772.25
2022-11-05T08:24:38.784Z,100779.84
2022-11-05T08:27:05.519Z,100772.25
2022-11-05T08:29:32.179Z,100783.75
2022-11-05T08:32:01.929Z,100789.75
2022-11-05T08:34:28.626Z,100792.81
2022-11-05T08:37:05.809Z,100795.66
2022-11-05T08:39:36.276Z,100792.59
2022-11-05T08:42:10.869Z,100794.25
2022-11-05T08:44:38.323Z,100801.22
2022-11-05T08:47:05.464Z,100801.22
2022-11-05T08:49:34.649Z,100807.00
2022-11-05T08:52:04.571Z,100813.16
2022-11-05T08:54:31.301Z,100817.44
2022-11-05T08:57:00.963Z,100811.44
2022-11-05T08:59:31.548Z,100810.72
2022-11-05T09:02:11.762Z,100819.44
2022-11-05T09:04:41.240Z,100831.16
2022-11-05T09:07:10.743Z,100831.78
2022-11-05T09:09:37.612Z,100832.50
2022-11-05T09:12:12.107Z,100834.41
2022-11-05T09:14:39.734Z,100840.50
2022-11-05T09:17:23.061Z,100834.28
2022-11-05T09:19:53.627Z,100834.84
2022-11-05T09:22:20.293Z,100840.25
2022-11-05T09:24:47.173Z,100839.16
2022-11-05T09:27:14.787Z,100838.69
2022-11-05T09:29:46.437Z,100843.16
2022-11-05T09:32:13.379Z,100853.38
2022-11-05T09:34:45.096Z,100848.09
2022-11-05T09:37:15.492Z,100849.03
2022-11-05T09:39:44.942Z,100849.44
2022-11-05T09:42:16.517Z,100851.94
2022-11-05T09:45:00.557Z,100856.16
2022-11-05T09:47:41.744Z,100855.56
2022-11-05T09:50:21.079Z,100861.16
2022-11-05T09:53:04.837Z,100863.50
2022-11-05T09:55:41.584Z,100854.47
2022-11-05T09:58:32.997Z,100861.97
2022-11-05T10:01:00.015Z,100854.88
2022-11-05T10:03:29.627Z,100850.28
2022-11-05T10:06:10.571Z,100851.38
2022-11-05T10:08:44.899Z,100851.88
2022-11-05T10:11:23.885Z,100847.31
2022-11-05T10:14:03.223Z,100846.53
2022-11-05T10:16:37.055Z,100843.72
2022-11-05T10:19:34.195Z,100853.50
2022-11-05T10:22:11.551Z,100843.94
2022-11-05T10:24:43.693Z,100851.53
2022-11-05T10:27:17.363Z,100844.56
2022-11-05T10:29:49.270Z,100848.84
2022-11-05T10:32:37.659Z,100841.16
2022-11-05T10:35:06.669Z,100844.94
2022-11-05T10:37:41.204Z,100837.72
2022-11-05T10:40:22.684Z,100838.34
2022-11-05T10:43:21.736Z,100849.56
2022-11-05T10:46:10.377Z,100847.91
2022-11-05T10:48:58.639Z,100838.81
2022-11-05T10:51:26.037Z,100843.75
2022-11-05T10:54:01.606Z,100836.78
2022-11-05T10:56:35.572Z,100842.38
2022-11-05T10:59:20.857Z,100846.97
2022-11-05T11:01:56.551Z,100852.00
2022-11-05T11:04:30.355Z,100851.16
2022-11-05T11:07:00.553Z,100846.69
2022-11-05T11:09:30.302Z,100848.06
2022-11-05T11:12:16.514Z,100848.41
2022-11-05T11:14:43.498Z,100855.28
2022-11-05T11:17:31.665Z,100852.44
2022-11-05T11:20:31.346Z,100856.75
2022-11-05T11:23:16.476Z,100853.16
2022-11-05T11:26:02.086Z,100851.00
2022-11-05T11:28:36.323Z,100852.78
2022-11-05T11:31:16.672Z,100855.09
2022-11-05T11:33:47.926Z,100861.03
2022-11-05T11:36:24.367Z,100855.00
2022-11-05T11:38:51.355Z,100862.47
2022-11-05T11:41:33.255Z,100866.06
2022-11-05T11:44:15.338Z,100867.06
2022-11-05T11:46:56.406Z,100863.19
2022-11-05T11:49:49.485Z,100857.75
2022-11-05T11:52:30.231Z,100868.44
2022-11-05T11:55:15.711Z,100868.50
2022-11-05T11:57:48.774Z,100867.13
2022-11-05T12:00:17.260Z,100859.16
2022-11-05T12:02:54.789Z,100855.22
2022-11-05T12:05:33.623Z,100867.50
2022-11-05T12:08:27.742Z,100868.44
2022-11-05T12:11:18.736Z,100865.94
2022-11-05T12:14:13.581Z,100863.00
2022-11-05T12:16:49.825Z,100860.00
2022-11-05T12:19:55.092Z,100862.03
2022-11-05T12:22:48.499Z,100858.38
2022-11-05T12:25:33.289Z,100855.47
2022-11-05T12:28:09.056Z,100857.63
2022-11-05T12:30:43.592Z,100856.41
2022-11-05T12:33:40.022Z,100857.78
2022-11-05T12:36:19.113Z,100845.78
2022-11-05T12:39:08.885Z,100858.47
2022-11-05T12:42:05.642Z,100846.44
2022-11-05T12:44:55.466Z,100854.75
2022-11-05T12:47:27.569Z,100856.31
2022-11-05T12:50:12.641Z,100850.75
2022-11-05T12:52:45.272Z,100847.16
2022-11-05T12:55:25.409Z,100847.00
2022-11-05T12:57:55.110Z,100850.44
2022-11-05T13:00:25.969Z,100845.09
2022-11-05T13:03:20.287Z,100853.72
2022-11-05T13:05:55.440Z,100845.28
2022-11-05T13:08:28.106Z,100835.22
2022-11-05T13:11:06.746Z,100833.75
2022-11-05T13:14:00.199Z,100843.53
2022-11-05T13:16:36.913Z,100839.81
2022-11-05T13:19:22.671Z,100851.31
2022-11-05T13:21:57.731Z,100853.00
2022-11-05T13:24:39.199Z,100861.22
2022-11-05T13:27:21.159Z,100858.41
2022-11-05T13:29:56.079Z,100862.00
2022-11-05T13:32:36.461Z,100862.09
2022-11-05T13:35:07.233Z,100866.69
2022-11-05T13:38:01.285Z,100856.47
2022-11-05T13:41:06.449Z,100860.56
2022-11-05T13:44:06.884Z,100864.78
2022-11-05T13:46:56.985Z,100867.09
2022-11-05T13:49:51.331Z,100863.66
2022-11-05T13:52:27.115Z,100871.91
2022-11-05T13:55:14.589Z,100870.91
2022-11-05T13:58:02.658Z,100864.09
2022-11-05T14:00:40.400Z,100874.50
2022-11-05T14:03:18.668Z,100876.63
2022-11-05T14:05:53.707Z,100871.81
2022-11-05T14:08:26.899Z,100878.84
2022-11-05T14:11:05.807Z,100880.59
2022-11-05T14:13:46.361Z,100881.91
2022-11-05T14:16:23.413Z,100888.31
2022-11-05T14:19:19.825Z,100881.75
2022-11-05T14:21:52.061Z,100888.63
2022-11-05T14:24:30.150Z,100876.44
2022-11-05T14:27:03.327Z,100883.25
2022-11-05T14:29:42.300Z,100885.63
2022-11-05T14:32:20.996Z,100890.78
2022-11-05T14:35:05.288Z,100893.59
2022-11-05T14:37:53.285Z,100883.97
2022-11-05T14:40:33.865Z,100887.19
2022-11-05T14:43:18.423Z,100883.44
2022-11-05T14:46:03.595Z,100885.78
2022-11-05T14:48:44.547Z,100896.84
2022-11-05T14:51:29.657Z,100894.41
2022-11-05T14:54:19.637Z,100897.38
2022-11-05T14:56:56.661Z,100905.69
2022-11-05T14:59:31.749Z,100895.16
2022-11-05T15:02:13.285Z,100900.38
2022-11-05T15:04:52.973Z,100904.47
2022-11-05T15:07:28.646Z,100904.13
2022-11-05T15:10:12.309Z,100902.44
2022-11-05T15:12:50.765Z,100901.47
2022-11-05T15:15:30.159Z,100894.69
2022-11-05T15:18:12.947Z,100904.50
2022-11-05T15:20:43.706Z,100900.44
2022-11-05T15:23:20.880Z,100902.66
2022-11-05T15:26:06.424Z,100898.84
2022-11-05T15:28:42.304Z,100902.25
2022-11-05T15:31:17.697Z,100906.81
2022-11-05T15:33:53.784Z,100903.00
2022-11-05T15:36:29.665Z,100910.03
2022-11-05T15:39:28.926Z,100901.94
2022-11-05T15:42:13.170Z,100912.88
2022-11-05T15:44:54.351Z,100913.00
2022-11-05T15:47:24.302Z,100909.97
2022-11-05T15:49:56.771Z,100906.81
2022-11-05T15:52:33.669Z,100920.72
2022-11-05T15:55:13.043Z,100918.59
2022-11-05T15:57:50.397Z,100914.09
2022-11-05T16:00:25.385Z,100928.16
2022-11-05T16:03:04.826Z,100921.84
2022-11-05T16:05:35.556Z,100920.69
2022-11-05T16:08:06.164Z,100927.91
2022-11-05T16:10:36.991Z,100929.06
2022-11-05T16:13:30.846Z,100933.44
2022-11-05T16:16:00.968Z,100939.41
2022-11-05T16:18:34.492Z,100939.41
2022-11-05T16:21:10.630Z,100938.84
2022-11-05T16:23:42.096Z,100933.44
2022-11-05T16:27:01.899Z,100946.88
2022-11-05T16:29:33.726Z,100941.00
2022-11-05T16:32:17.299Z,100953.75
2022-11-05T16:35:01.025Z,100955.69
2022-11-05T16:37:40.119Z,100952.94
2022-11-05T16:40:24.440Z,100965.25
2022-11-05T16:42:55.607Z,100960.06
2022-11-05T16:45:24.981Z,100963.69
2022-11-05T16:47:54.769Z,100964.06
2022-11-05T16:50:29.463Z,100975.28
2022-11-05T16:52:56.531Z,100970.22
2022-11-05T16:55:26.328Z,100974.13
2022-11-05T16:57:55.747Z,100974.75
2022-11-05T17:03:04.539Z,100991.03
2022-11-05T17:05:31.772Z,100993.41
2022-11-05T17:08:06.276Z,100992.53
2022-11-05T17:10:33.174Z,100998.94
2022-11-05T17:13:02.834Z,101008.56
2022-11-05T17:15:35.603Z,101003.47
2022-11-05T17:18:05.693Z,101006.31
2022-11-05T17:20:41.080Z,101014.44
2022-11-05T17:23:18.901Z,101012.72
2022-11-05T17:25:57.821Z,101019.16
2022-11-05T17:28:30.908Z,101016.00
2022-11-05T17:31:16.388Z,101026.44
2022-11-05T17:33:56.704Z,101024.75
2022-11-05T17:36:27.893Z,101028.31
2022-11-05T17:38:54.917Z,101028.44
2022-11-05T17:41:26.383Z,101042.50
2022-11-05T17:44:00.447Z,101039.34
2022-11-05T17:46:27.240Z,101040.41
2022-11-05T17:48:54.409Z,101046.38
2022-11-05T17:51:21.640Z,101048.72
2022-11-05T17:53:51.148Z,101035.38
2022-11-05T17:56:30.582Z,101042.22
2022-11-05T17:59:04.766Z,101048.53
2022-11-05T18:01:35.612Z,101053.72
2022-11-05T18:04:09.058Z,101050.63
2022-11-05T18:06:45.450Z,101053.25
2022-11-05T18:09:16.346Z,101053.63
2022-11-05T18:11:43.602Z,101057.66
2022-11-05T18:14:10.675Z,101059.38
2022-11-05T18:16:37.538Z,101060.84
2022-11-05T18:19:05.306Z,101066.03
2022-11-05T18:21:35.589Z,101072.59
2022-11-05T18:24:04.342Z,101069.53
2022-11-05T18:26:31.330Z,101064.19
2022-11-05T18:29:00.574Z,101064.34
2022-11-05T18:31:27.771Z,101063.63
2022-11-05T18:33:59.234Z,101066.28
2022-11-05T18:36:28.972Z,101066.72
2022-11-05T18:38:58.332Z,101065.00
2022-11-05T18:41:27.745Z,101071.28
2022-11-05T18:44:00.429Z,101067.75
2022-11-05T18:46:57.210Z,101073.41
2022-11-05T18:49:27.030Z,101063.09
2022-11-05T18:52:00.138Z,101071.13
2022-11-05T18:54:28.788Z,101072.66
2022-11-05T18:56:58.471Z,101075.63
2022-11-05T18:59:40.696Z,101088.75
2022-11-05T19:02:08.886Z,101083.13
2022-11-05T19:05:07.050Z,101089.16
2022-11-05T19:07:43.841Z,101080.63
2022-11-05T19:10:21.053Z,101097.78
2022-11-05T19:12:48.026Z,101096.97
2022-11-05T19:15:18.255Z,101102.63
2022-11-05T19:17:45.673Z,101110.31
2022-11-05T19:20:14.033Z,101108.44
2022-11-05T19:22:41.399Z,101108.28
2022-11-05T19:25:09.247Z,101113.03
2022-11-05T19:27:39.991Z,101120.63
2022-11-05T19:30:07.348Z,101119.97
2022-11-05T19:32:36.093Z,101116.59
2022-11-05T19:35:04.631Z,101120.41
2022-11-05T19:37:34.284Z,101126.28
2022-11-05T19:40:08.442Z,101130.66
2022-11-05T19:42:36.292Z,101127.22
2022-11-05T19:45:30.414Z,101127.28
2022-11-05T19:47:50.961Z,101133.84
2022-11-05T19:50:21.078Z,101124.03
2022-11-05T19:52:51.280Z,101131.50
2022-11-05T19:55:28.783Z,101133.56
2022-11-05T19:57:58.585Z,101144.91
2022-11-05T20:00:28.066Z,101147.09
2022-11-05T20:02:58.872Z,101152.97
2022-11-05T20:05:31.215Z,101159.16
2022-11-05T20:07:57.905Z,101159.66
2022-11-05T20:10:27.154Z,101159.09
2022-11-05T20:13:06.745Z,101166.91
2022-11-05T20:15:42.943Z,101175.44
2022-11-05T20:18:28.675Z,101177.75
2022-11-05T20:21:11.922Z,101172.34
2022-11-05T20:23:38.764Z,101181.53
2022-11-05T20:26:08.356Z,101192.59
2022-11-05T20:28:42.184Z,101205.25
2022-11-05T20:31:16.679Z,101204.63
2022-11-05T20:33:51.627Z,101209.19
2022-11-05T20:36:26.331Z,101205.97
2022-11-05T20:39:08.018Z,101220.38
2022-11-05T20:41:35.014Z,101203.72
2022-11-05T20:44:01.796Z,101214.00
2022-11-05T20:46:29.685Z,101217.03
2022-11-05T20:48:59.874Z,101218.00
2022-11-05T20:51:28.443Z,101221.75
2022-11-05T20:54:01.420Z,101228.09
2022-11-05T20:56:37.251Z,101229.81
2022-11-05T20:59:07.160Z,101233.81
2022-11-05T21:01:34.834Z,101227.00
2022-11-05T21:04:05.148Z,101233.38
2022-11-05T21:06:37.784Z,101233.63
2022-11-05T21:09:07.973Z,101236.34
2022-11-05T21:11:57.581Z,101227.66
2022-11-05T21:14:25.018Z,101232.91
2022-11-05T21:16:53.765Z,101231.44
2022-11-05T21:19:21.444Z,101233.63
2022-11-05T21:21:50.336Z,101227.75
2022-11-05T21:24:25.445Z,101232.66
2022-11-05T21:26:56.888Z,101231.09
2022-11-05T21:29:25.568Z,101237.28
2022-11-05T21:31:54.804Z,101238.13
2022-11-05T21:34:21.503Z,101237.97
2022-11-05T21:36:53.312Z,101241.72
2022-11-05T21:39:20.007Z,101240.88
2022-11-05T21:41:59.988Z,101245.91
2022-11-05T21:44:41.749Z,101239.97
2022-11-05T21:47:13.887Z,101241.97
2022-11-05T21:49:50.379Z,101244.00
2022-11-05T21:52:40.778Z,101242.94
2022-11-05T21:55:29.166Z,101247.09
2022-11-05T21:58:23.098Z,101253.41
2022-11-05T22:00:52.515Z,101261.03
2022-11-05T22:03:23.088Z,101259.19
2022-11-05T22:05:50.380Z,101267.78
2022-11-05T22:08:17.207Z,101259.13
2022-11-05T22:10:44.652Z,101253.13
2022-11-05T22:13:20.016Z,101250.59
2022-11-05T22:15:56.929Z,101253.34
2022-11-05T22:18:34.302Z,101254.25
2022-11-05T22:21:01.178Z,101252.38
2022-11-05T22:23:28.207Z,101257.38
2022-11-05T22:26:03.821Z,101254.78
2022-11-05T22:28:33.661Z,101261.03
2022-11-05T22:31:00.769Z,101255.13
2022-11-05T22:33:34.427Z,101259.50
2022-11-05T22:36:17.647Z,101256.78
2022-11-05T22:38:46.204Z,101258.88
2022-11-05T22:41:19.038Z,101254.41
2022-11-05T22:43:53.458Z,101258.16
2022-11-05T22:46:34.948Z,101252.00
2022-11-05T22:49:06.785Z,101259.72
2022-11-05T22:51:49.720Z,101264.00
2022-11-05T22:54:21.052Z,101265.59
2022-11-05T22:56:50.259Z,101260.59
2022-11-05T22:59:16.928Z,101264.25
2022-11-05T23:01:45.822Z,101262.66
2022-11-05T23:04:19.271Z,101270.59
2022-11-05T23:07:04.581Z,101274.81
2022-11-05T23:09:53.933Z,101264.19
2022-11-05T23:12:30.173Z,101267.06
2022-11-05T23:14:58.590Z,101266.25
2022-11-05T23:17:44.555Z,101270.41
2022-11-05T23:20:33.544Z,101275.09
2022-11-05T23:23:20.549Z,101274.28
2022-11-05T23:25:47.490Z,101270.72
2022-11-05T23:28:23.603Z,101269.56
2022-11-05T23:31:10.438Z,101280.06
2022-11-05T23:33:39.994Z,101274.22
2022-11-05T23:36:26.392Z,101277.81
2022-11-05T23:38:56.071Z,101283.06
2022-11-05T23:41:41.660Z,101283.19
2022-11-05T23:44:27.704Z,101281.16
2022-11-05T23:47:13.212Z,101288.34
2022-11-05T23:49:39.848Z,101291.69
2022-11-05T23:52:06.591Z,101305.97
2022-11-05T23:54:36.327Z,101300.69
2022-11-05T23:57:06.400Z,101297.91
2022-11-05T23:59:36.641Z,101301.34
